PWSweather.com
Personal Weather Stations
Station Observations
ALOHA852
Aloha, OR

Aloha, OR

Lat: 45.476667, Lon: -122.894722

Elevation: 278

Station Type: Ambient Weather

Latest ConditionsUpdated 5:46:00 AM PDT Thursday, Oct 23, 2014
Currently Today's Max Today's Min Today's Average
Temperature 54.0°F12.2°C 54.9°F12.7°C 52.9°F11.6°C 53.9°F12.2°C
Dew Point 53.7°F12.1°C 54.6°F12.6°C 52.6°F11.4°C 53.6°F12.0°C
Winds 2.7 mph NE4.3 kmh NE 10.9 mph N17.5 kmh N - 5.2 mph 8.4 kmh
Wind Gusts 7.6 mph12.2 kmh 13.6 mph21.9 kmh - -
Humidity 99% 99% 99% 99%
Pressure 29.35 in993.9 mb 29.38 in994.9 mb 29.33 in993.2 mb -
Precipitation - 0.19 in4.8 mm - -
Hour Temp Dew Point Humidity Winds Wind Gusts Pressure Precip Precip Rate Daily Precip Total
05:46 AM 54.0°F12.2°C 53.7°F12.1°C 99% 2.7 mph NE4.3 kmh NE 7.6 mph12.2 kmh 29.35 in993.9 mb 0.04 in1.0 mm 0.00 in/hr0.0 mm/hr 0.19 in4.8 mm
05:45 AM 53.8°F12.1°C 53.5°F11.9°C 99% 3.1 mph NE5.0 kmh NE 7.6 mph12.2 kmh 29.35 in993.9 mb 0.04 in1.0 mm 0.00 in/hr0.0 mm/hr 0.19 in4.8 mm
05:44 AM 53.8°F12.1°C 53.5°F11.9°C 99% 3.4 mph NE5.5 kmh NE 7.6 mph12.2 kmh 29.35 in993.9 mb 0.04 in1.0 mm 0.00 in/hr0.0 mm/hr 0.19 in4.8 mm
05:43 AM 53.6°F12.0°C 53.3°F11.8°C 99% 4.0 mph NE6.4 kmh NE 7.6 mph12.2 kmh 29.35 in993.9 mb 0.04 in1.0 mm 0.00 in/hr0.0 mm/hr 0.19 in4.8 mm
05:42 AM 53.8°F12.1°C 53.5°F11.9°C 99% 4.6 mph NNE7.4 kmh NNE 7.6 mph12.2 kmh 29.34 in993.6 mb 0.04 in1.0 mm 0.00 in/hr0.0 mm/hr 0.19 in4.8 mm
05:41 AM 53.8°F12.1°C 53.5°F11.9°C 99% 5.1 mph NNE8.2 kmh NNE 7.6 mph12.2 kmh 29.35 in993.9 mb 0.04 in1.0 mm 0.00 in/hr0.0 mm/hr 0.19 in4.8 mm
05:40 AM 53.8°F12.1°C 53.5°F11.9°C 99% 5.0 mph NNE8.0 kmh NNE 7.6 mph12.2 kmh 29.35 in993.9 mb 0.04 in1.0 mm 0.00 in/hr0.0 mm/hr 0.19 in4.8 mm
05:39 AM 53.8°F12.1°C 53.5°F11.9°C 99% 4.6 mph N7.4 kmh N 7.6 mph12.2 kmh 29.34 in993.6 mb 0.04 in1.0 mm 0.00 in/hr0.0 mm/hr 0.19 in4.8 mm
05:38 AM 53.8°F12.1°C 53.5°F11.9°C 99% 4.2 mph N6.8 kmh N 7.6 mph12.2 kmh 29.34 in993.6 mb 0.04 in1.0 mm 0.00 in/hr0.0 mm/hr 0.19 in4.8 mm
05:37 AM 53.8°F12.1°C 53.5°F11.9°C 99% 3.9 mph N6.3 kmh N 7.6 mph12.2 kmh 29.34 in993.6 mb 0.04 in1.0 mm 0.00 in/hr0.0 mm/hr 0.19 in4.8 mm
05:36 AM 54.0°F12.2°C 53.7°F12.1°C 99% 3.8 mph N6.1 kmh N 7.6 mph12.2 kmh 29.34 in993.6 mb 0.04 in1.0 mm 0.00 in/hr0.0 mm/hr 0.19 in4.8 mm
05:35 AM 54.0°F12.2°C 53.7°F12.1°C 99% 3.6 mph N5.8 kmh N 7.6 mph12.2 kmh 29.34 in993.6 mb 0.04 in1.0 mm 0.00 in/hr0.0 mm/hr 0.19 in4.8 mm
05:34 AM 53.8°F12.1°C 53.5°F11.9°C 99% 3.2 mph N5.1 kmh N 7.6 mph12.2 kmh 29.34 in993.6 mb 0.05 in1.3 mm 0.00 in/hr0.0 mm/hr 0.19 in4.8 mm
05:33 AM 54.0°F12.2°C 53.7°F12.1°C 99% 3.0 mph N4.8 kmh N 7.6 mph12.2 kmh 29.34 in993.6 mb 0.05 in1.3 mm 0.00 in/hr0.0 mm/hr 0.19 in4.8 mm
05:32 AM 53.8°F12.1°C 53.5°F11.9°C 99% 3.1 mph N5.0 kmh N 6.9 mph11.1 kmh 29.34 in993.6 mb 0.05 in1.3 mm 0.00 in/hr0.0 mm/hr 0.19 in4.8 mm
05:31 AM 53.8°F12.1°C 53.5°F11.9°C 99% 3.2 mph N5.1 kmh N 6.9 mph11.1 kmh 29.35 in993.9 mb 0.05 in1.3 mm 0.00 in/hr0.0 mm/hr 0.19 in4.8 mm
05:30 AM 53.8°F12.1°C 53.5°F11.9°C 99% 3.8 mph N6.1 kmh N 6.9 mph11.1 kmh 29.34 in993.6 mb 0.05 in1.3 mm 0.00 in/hr0.0 mm/hr 0.19 in4.8 mm
05:29 AM 53.8°F12.1°C 53.5°F11.9°C 99% 4.1 mph N6.6 kmh N 6.9 mph11.1 kmh 29.34 in993.6 mb 0.05 in1.3 mm 0.00 in/hr0.0 mm/hr 0.19 in4.8 mm
05:28 AM 54.0°F12.2°C 53.7°F12.1°C 99% 4.5 mph N7.2 kmh N 6.9 mph11.1 kmh 29.35 in993.9 mb 0.05 in1.3 mm 0.00 in/hr0.0 mm/hr 0.19 in4.8 mm
05:27 AM 53.8°F12.1°C 53.5°F11.9°C 99% 4.9 mph N7.9 kmh N 8.3 mph13.4 kmh 29.35 in993.9 mb 0.05 in1.3 mm 0.00 in/hr0.0 mm/hr 0.19 in4.8 mm
05:26 AM 53.8°F12.1°C 53.5°F11.9°C 99% 5.2 mph N8.4 kmh N 8.3 mph13.4 kmh 29.35 in993.9 mb 0.05 in1.3 mm 0.00 in/hr0.0 mm/hr 0.19 in4.8 mm
05:25 AM 54.0°F12.2°C 53.7°F12.1°C 99% 5.4 mph N8.7 kmh N 8.3 mph13.4 kmh 29.35 in993.9 mb 0.05 in1.3 mm 0.00 in/hr0.0 mm/hr 0.19 in4.8 mm
05:24 AM 53.6°F12.0°C 53.3°F11.8°C 99% 5.3 mph N8.5 kmh N 8.3 mph13.4 kmh 29.35 in993.9 mb 0.05 in1.3 mm 0.60 in/hr15.2 mm/hr 0.19 in4.8 mm
05:23 AM 54.0°F12.2°C 53.7°F12.1°C 99% 4.9 mph N7.9 kmh N 8.3 mph13.4 kmh 29.35 in993.9 mb 0.04 in1.0 mm 0.00 in/hr0.0 mm/hr 0.18 in4.6 mm
05:22 AM 53.8°F12.1°C 53.5°F11.9°C 99% 4.4 mph N7.1 kmh N 8.3 mph13.4 kmh 29.35 in993.9 mb 0.04 in1.0 mm 0.00 in/hr0.0 mm/hr 0.18 in4.6 mm
05:21 AM 54.0°F12.2°C 53.7°F12.1°C 99% 4.0 mph N6.4 kmh N 8.3 mph13.4 kmh 29.35 in993.9 mb 0.04 in1.0 mm 1.20 in/hr30.5 mm/hr 0.18 in4.6 mm
05:20 AM 53.8°F12.1°C 53.5°F11.9°C 99% 3.9 mph N6.3 kmh N 8.3 mph13.4 kmh 29.35 in993.9 mb 0.02 in0.5 mm 0.00 in/hr0.0 mm/hr 0.17 in4.3 mm
05:19 AM 53.6°F12.0°C 53.3°F11.8°C 99% 3.7 mph N6.0 kmh N 8.3 mph13.4 kmh 29.35 in993.9 mb 0.02 in0.5 mm 0.00 in/hr0.0 mm/hr 0.17 in4.3 mm
05:18 AM 53.8°F12.1°C 53.5°F11.9°C 99% 3.5 mph N5.6 kmh N 8.3 mph13.4 kmh 29.35 in993.9 mb 0.04 in1.0 mm 0.00 in/hr0.0 mm/hr 0.17 in4.3 mm
05:17 AM 54.0°F12.2°C 53.7°F12.1°C 99% 3.0 mph N4.8 kmh N 8.3 mph13.4 kmh 29.35 in993.9 mb 0.04 in1.0 mm 0.00 in/hr0.0 mm/hr 0.17 in4.3 mm
05:16 AM 53.8°F12.1°C 53.5°F11.9°C 99% 2.5 mph NNE4.0 kmh NNE 5.4 mph8.7 kmh 29.35 in993.9 mb 0.04 in1.0 mm 0.00 in/hr0.0 mm/hr 0.17 in4.3 mm
05:15 AM 54.0°F12.2°C 53.7°F12.1°C 99% 2.3 mph NNE3.7 kmh NNE 5.4 mph8.7 kmh 29.35 in993.9 mb 0.04 in1.0 mm 0.00 in/hr0.0 mm/hr 0.17 in4.3 mm
05:14 AM 53.8°F12.1°C 53.5°F11.9°C 99% 2.5 mph NNE4.0 kmh NNE 6.9 mph11.1 kmh 29.35 in993.9 mb 0.04 in1.0 mm 0.00 in/hr0.0 mm/hr 0.17 in4.3 mm
05:13 AM 53.8°F12.1°C 53.5°F11.9°C 99% 2.8 mph NNE4.5 kmh NNE 6.9 mph11.1 kmh 29.35 in993.9 mb 0.04 in1.0 mm 0.00 in/hr0.0 mm/hr 0.17 in4.3 mm
05:12 AM 53.8°F12.1°C 53.5°F11.9°C 99% 2.9 mph N4.7 kmh N 6.9 mph11.1 kmh 29.35 in993.9 mb 0.04 in1.0 mm 0.00 in/hr0.0 mm/hr 0.17 in4.3 mm
05:11 AM 53.8°F12.1°C 53.5°F11.9°C 99% 2.9 mph N4.7 kmh N 6.9 mph11.1 kmh 29.35 in993.9 mb 0.04 in1.0 mm 0.00 in/hr0.0 mm/hr 0.17 in4.3 mm
05:10 AM 53.6°F12.0°C 53.3°F11.8°C 99% 2.9 mph N4.7 kmh N 6.9 mph11.1 kmh 29.35 in993.9 mb 0.04 in1.0 mm 0.00 in/hr0.0 mm/hr 0.17 in4.3 mm
05:09 AM 54.0°F12.2°C 53.7°F12.1°C 99% 3.2 mph NNW5.1 kmh NNW 6.9 mph11.1 kmh 29.34 in993.6 mb 0.04 in1.0 mm 0.00 in/hr0.0 mm/hr 0.15 in3.8 mm
05:08 AM 53.4°F11.9°C 53.2°F11.8°C 99% 3.6 mph NNW5.8 kmh NNW 7.6 mph12.2 kmh 29.34 in993.6 mb 0.04 in1.0 mm 0.00 in/hr0.0 mm/hr 0.15 in3.8 mm
05:07 AM 53.6°F12.0°C 53.3°F11.8°C 99% 3.7 mph NNW6.0 kmh NNW 7.6 mph12.2 kmh 29.34 in993.6 mb 0.04 in1.0 mm 0.00 in/hr0.0 mm/hr 0.15 in3.8 mm
05:06 AM 53.8°F12.1°C 53.5°F11.9°C 99% 3.9 mph NNW6.3 kmh NNW 7.6 mph12.2 kmh 29.34 in993.6 mb 0.04 in1.0 mm 0.00 in/hr0.0 mm/hr 0.15 in3.8 mm
05:05 AM 53.8°F12.1°C 53.5°F11.9°C 99% 4.1 mph NNW6.6 kmh NNW 7.6 mph12.2 kmh 29.34 in993.6 mb 0.04 in1.0 mm 0.00 in/hr0.0 mm/hr 0.15 in3.8 mm
05:04 AM 53.6°F12.0°C 53.3°F11.8°C 99% 4.0 mph NNW6.4 kmh NNW 7.6 mph12.2 kmh 29.34 in993.6 mb 0.04 in1.0 mm 0.00 in/hr0.0 mm/hr 0.15 in3.8 mm
05:03 AM 53.6°F12.0°C 53.3°F11.8°C 99% 3.9 mph NNW6.3 kmh NNW 7.6 mph12.2 kmh 29.34 in993.6 mb 0.04 in1.0 mm 0.00 in/hr0.0 mm/hr 0.15 in3.8 mm
05:02 AM 53.8°F12.1°C 53.5°F11.9°C 99% 4.2 mph NW6.8 kmh NW 7.6 mph12.2 kmh 29.34 in993.6 mb 0.04 in1.0 mm 0.00 in/hr0.0 mm/hr 0.15 in3.8 mm
05:01 AM 53.8°F12.1°C 53.5°F11.9°C 99% 4.3 mph NW6.9 kmh NW 7.6 mph12.2 kmh 29.33 in993.2 mb 0.04 in1.0 mm 0.00 in/hr0.0 mm/hr 0.15 in3.8 mm
05:00 AM 53.6°F12.0°C 53.3°F11.8°C 99% 4.2 mph NW6.8 kmh NW 7.6 mph12.2 kmh 29.33 in993.2 mb 0.04 in1.0 mm 0.00 in/hr0.0 mm/hr 0.15 in3.8 mm
04:59 AM 53.4°F11.9°C 53.2°F11.8°C 99% 4.4 mph NW7.1 kmh NW 7.6 mph12.2 kmh 29.33 in993.2 mb 0.04 in1.0 mm 0.00 in/hr0.0 mm/hr 0.15 in3.8 mm
04:58 AM 53.4°F11.9°C 53.2°F11.8°C 99% 4.4 mph NW7.1 kmh NW 7.6 mph12.2 kmh 29.33 in993.2 mb 0.04 in1.0 mm 0.00 in/hr0.0 mm/hr 0.15 in3.8 mm
04:57 AM 53.6°F12.0°C 53.3°F11.8°C 99% 4.9 mph NW7.9 kmh NW 7.6 mph12.2 kmh 29.34 in993.6 mb 0.05 in1.3 mm 0.00 in/hr0.0 mm/hr 0.15 in3.8 mm
04:56 AM 53.8°F12.1°C 53.5°F11.9°C 99% 4.9 mph NW7.9 kmh NW 7.6 mph12.2 kmh 29.34 in993.6 mb 0.05 in1.3 mm 0.00 in/hr0.0 mm/hr 0.15 in3.8 mm
04:55 AM 53.8°F12.1°C 53.5°F11.9°C 99% 5.1 mph NW8.2 kmh NW 7.6 mph12.2 kmh 29.34 in993.6 mb 0.05 in1.3 mm 0.00 in/hr0.0 mm/hr 0.15 in3.8 mm
04:54 AM 53.6°F12.0°C 53.3°F11.8°C 99% 5.3 mph NW8.5 kmh NW 7.6 mph12.2 kmh 29.33 in993.2 mb 0.05 in1.3 mm 0.00 in/hr0.0 mm/hr 0.15 in3.8 mm
04:53 AM 53.2°F11.8°C 53.0°F11.7°C 99% 5.4 mph NW8.7 kmh NW 7.6 mph12.2 kmh 29.33 in993.2 mb 0.05 in1.3 mm 0.00 in/hr0.0 mm/hr 0.15 in3.8 mm
04:52 AM 53.8°F12.1°C 53.5°F11.9°C 99% 5.6 mph NW9.0 kmh NW 7.6 mph12.2 kmh 29.33 in993.2 mb 0.06 in1.5 mm 0.00 in/hr0.0 mm/hr 0.15 in3.8 mm
04:51 AM 53.6°F12.0°C 53.3°F11.8°C 99% 5.7 mph NW9.2 kmh NW 7.6 mph12.2 kmh 29.33 in993.2 mb 0.06 in1.5 mm 0.00 in/hr0.0 mm/hr 0.15 in3.8 mm
04:50 AM 53.6°F12.0°C 53.3°F11.8°C 99% 5.9 mph NW9.5 kmh NW 7.6 mph12.2 kmh 29.34 in993.6 mb 0.06 in1.5 mm 0.00 in/hr0.0 mm/hr 0.15 in3.8 mm
04:49 AM 53.4°F11.9°C 53.2°F11.8°C 99% 5.6 mph NW9.0 kmh NW 7.6 mph12.2 kmh 29.34 in993.6 mb 0.06 in1.5 mm 0.00 in/hr0.0 mm/hr 0.15 in3.8 mm
04:48 AM 53.4°F11.9°C 53.2°F11.8°C 99% 5.1 mph NW8.2 kmh NW 7.6 mph12.2 kmh 29.34 in993.6 mb 0.06 in1.5 mm 0.00 in/hr0.0 mm/hr 0.15 in3.8 mm
04:47 AM 53.6°F12.0°C 53.3°F11.8°C 99% 4.8 mph NW7.7 kmh NW 6.0 mph9.7 kmh 29.34 in993.6 mb 0.06 in1.5 mm 0.00 in/hr0.0 mm/hr 0.15 in3.8 mm
04:46 AM 53.4°F11.9°C 53.2°F11.8°C 99% 4.9 mph NW7.9 kmh NW 6.0 mph9.7 kmh 29.34 in993.6 mb 0.07 in1.8 mm 0.00 in/hr0.0 mm/hr 0.15 in3.8 mm
04:45 AM 53.2°F11.8°C 53.0°F11.7°C 99% 4.8 mph NW7.7 kmh NW 6.0 mph9.7 kmh 29.34 in993.6 mb 0.07 in1.8 mm 0.00 in/hr0.0 mm/hr 0.15 in3.8 mm
04:44 AM 53.4°F11.9°C 53.2°F11.8°C 99% 4.8 mph NW7.7 kmh NW 6.0 mph9.7 kmh 29.34 in993.6 mb 0.07 in1.8 mm 0.00 in/hr0.0 mm/hr 0.15 in3.8 mm
04:43 AM 53.4°F11.9°C 53.2°F11.8°C 99% 4.6 mph NW7.4 kmh NW 6.0 mph9.7 kmh 29.35 in993.9 mb 0.08 in2.0 mm 0.00 in/hr0.0 mm/hr 0.15 in3.8 mm
04:42 AM 53.4°F11.9°C 53.2°F11.8°C 99% 4.4 mph NNW7.1 kmh NNW 6.0 mph9.7 kmh 29.35 in993.9 mb 0.08 in2.0 mm 0.00 in/hr0.0 mm/hr 0.15 in3.8 mm
04:41 AM 53.6°F12.0°C 53.3°F11.8°C 99% 4.3 mph NNW6.9 kmh NNW 6.0 mph9.7 kmh 29.35 in993.9 mb 0.08 in2.0 mm 0.00 in/hr0.0 mm/hr 0.15 in3.8 mm
04:40 AM 53.4°F11.9°C 53.2°F11.8°C 99% 4.0 mph NNW6.4 kmh NNW 6.0 mph9.7 kmh 29.35 in993.9 mb 0.08 in2.0 mm 0.00 in/hr0.0 mm/hr 0.15 in3.8 mm
04:39 AM 53.4°F11.9°C 53.2°F11.8°C 99% 3.9 mph N6.3 kmh N 6.0 mph9.7 kmh 29.35 in993.9 mb 0.09 in2.3 mm 0.00 in/hr0.0 mm/hr 0.15 in3.8 mm
04:38 AM 53.2°F11.8°C 53.0°F11.7°C 99% 3.5 mph N5.6 kmh N 6.0 mph9.7 kmh 29.35 in993.9 mb 0.09 in2.3 mm 0.00 in/hr0.0 mm/hr 0.15 in3.8 mm
04:37 AM 53.6°F12.0°C 53.3°F11.8°C 99% 3.4 mph N5.5 kmh N 6.0 mph9.7 kmh 29.35 in993.9 mb 0.09 in2.3 mm 0.00 in/hr0.0 mm/hr 0.15 in3.8 mm
04:36 AM 53.2°F11.8°C 53.0°F11.7°C 99% 3.1 mph N5.0 kmh N 6.0 mph9.7 kmh 29.35 in993.9 mb 0.09 in2.3 mm 0.00 in/hr0.0 mm/hr 0.15 in3.8 mm
04:35 AM 53.2°F11.8°C 53.0°F11.7°C 99% 2.6 mph N4.2 kmh N 5.4 mph8.7 kmh 29.35 in993.9 mb 0.09 in2.3 mm 0.00 in/hr0.0 mm/hr 0.15 in3.8 mm
04:34 AM 53.2°F11.8°C 53.0°F11.7°C 99% 2.3 mph N3.7 kmh N 5.4 mph8.7 kmh 29.36 in994.2 mb 0.09 in2.3 mm 0.00 in/hr0.0 mm/hr 0.14 in3.6 mm
04:33 AM 53.1°F11.7°C 52.8°F11.6°C 99% 1.9 mph N3.1 kmh N 3.8 mph6.1 kmh 29.36 in994.2 mb 0.11 in2.8 mm 0.00 in/hr0.0 mm/hr 0.14 in3.6 mm
04:32 AM 53.2°F11.8°C 53.0°F11.7°C 99% 1.5 mph N2.4 kmh N 3.8 mph6.1 kmh 29.36 in994.2 mb 0.11 in2.8 mm 0.00 in/hr0.0 mm/hr 0.14 in3.6 mm
04:31 AM 53.2°F11.8°C 53.0°F11.7°C 99% 1.3 mph N2.1 kmh N 3.8 mph6.1 kmh 29.36 in994.2 mb 0.11 in2.8 mm 0.00 in/hr0.0 mm/hr 0.14 in3.6 mm
04:30 AM 53.4°F11.9°C 53.2°F11.8°C 99% 1.3 mph NNW2.1 kmh NNW 3.8 mph6.1 kmh 29.36 in994.2 mb 0.12 in3.0 mm 0.00 in/hr0.0 mm/hr 0.14 in3.6 mm
04:29 AM 53.1°F11.7°C 52.8°F11.6°C 99% 1.3 mph NW2.1 kmh NW 3.1 mph5.0 kmh 29.35 in993.9 mb 0.12 in3.0 mm 0.00 in/hr0.0 mm/hr 0.14 in3.6 mm
04:28 AM 53.4°F11.9°C 53.2°F11.8°C 99% 1.4 mph NW2.3 kmh NW 3.1 mph5.0 kmh 29.36 in994.2 mb 0.12 in3.0 mm 0.00 in/hr0.0 mm/hr 0.14 in3.6 mm
04:27 AM 53.2°F11.8°C 53.0°F11.7°C 99% 1.6 mph NNW2.6 kmh NNW 3.1 mph5.0 kmh 29.36 in994.2 mb 0.12 in3.0 mm 0.00 in/hr0.0 mm/hr 0.14 in3.6 mm
04:26 AM 53.4°F11.9°C 53.2°F11.8°C 99% 1.5 mph N2.4 kmh N 3.1 mph5.0 kmh 29.36 in994.2 mb 0.13 in3.3 mm 0.00 in/hr0.0 mm/hr 0.14 in3.6 mm
04:25 AM 53.2°F11.8°C 53.0°F11.7°C 99% 1.6 mph N2.6 kmh N 3.1 mph5.0 kmh 29.36 in994.2 mb 0.13 in3.3 mm 0.00 in/hr0.0 mm/hr 0.14 in3.6 mm
04:24 AM 53.2°F11.8°C 53.0°F11.7°C 99% 1.5 mph N2.4 kmh N 3.1 mph5.0 kmh 29.36 in994.2 mb 0.13 in3.3 mm 0.00 in/hr0.0 mm/hr 0.14 in3.6 mm
04:23 AM 53.2°F11.8°C 53.0°F11.7°C 99% 1.5 mph N2.4 kmh N 3.1 mph5.0 kmh 29.36 in994.2 mb 0.13 in3.3 mm 0.00 in/hr0.0 mm/hr 0.14 in3.6 mm
04:22 AM 53.2°F11.8°C 53.0°F11.7°C 99% 1.8 mph NNE2.9 kmh NNE 3.8 mph6.1 kmh 29.36 in994.2 mb 0.13 in3.3 mm 0.00 in/hr0.0 mm/hr 0.14 in3.6 mm
04:21 AM 53.4°F11.9°C 53.2°F11.8°C 99% 2.1 mph NNE3.4 kmh NNE 3.8 mph6.1 kmh 29.36 in994.2 mb 0.13 in3.3 mm 0.00 in/hr0.0 mm/hr 0.14 in3.6 mm
04:20 AM 53.6°F12.0°C 53.3°F11.8°C 99% 2.1 mph NNE3.4 kmh NNE 3.8 mph6.1 kmh 29.36 in994.2 mb 0.13 in3.3 mm 0.60 in/hr15.2 mm/hr 0.14 in3.6 mm
04:19 AM 53.4°F11.9°C 53.2°F11.8°C 99% 1.8 mph NE2.9 kmh NE 3.8 mph6.1 kmh 29.36 in994.2 mb 0.12 in3.0 mm 0.00 in/hr0.0 mm/hr 0.13 in3.3 mm
04:18 AM 53.4°F11.9°C 53.2°F11.8°C 99% 1.8 mph NE2.9 kmh NE 3.8 mph6.1 kmh 29.36 in994.2 mb 0.12 in3.0 mm 0.00 in/hr0.0 mm/hr 0.13 in3.3 mm
04:17 AM 53.2°F11.8°C 53.0°F11.7°C 99% 1.7 mph NE2.7 kmh NE 3.8 mph6.1 kmh 29.36 in994.2 mb 0.12 in3.0 mm 0.00 in/hr0.0 mm/hr 0.13 in3.3 mm
04:16 AM 53.4°F11.9°C 53.2°F11.8°C 99% 1.9 mph NE3.1 kmh NE 3.8 mph6.1 kmh 29.36 in994.2 mb 0.12 in3.0 mm 0.00 in/hr0.0 mm/hr 0.13 in3.3 mm
04:15 AM 53.4°F11.9°C 53.2°F11.8°C 99% 2.2 mph NNE3.5 kmh NNE 4.5 mph7.2 kmh 29.36 in994.2 mb 0.12 in3.0 mm 0.00 in/hr0.0 mm/hr 0.13 in3.3 mm
04:14 AM 53.4°F11.9°C 53.2°F11.8°C 99% 2.5 mph NNE4.0 kmh NNE 4.5 mph7.2 kmh 29.36 in994.2 mb 0.12 in3.0 mm 0.00 in/hr0.0 mm/hr 0.13 in3.3 mm
04:13 AM 53.6°F12.0°C 53.3°F11.8°C 99% 2.6 mph NNE4.2 kmh NNE 4.5 mph7.2 kmh 29.36 in994.2 mb 0.12 in3.0 mm 0.00 in/hr0.0 mm/hr 0.13 in3.3 mm
04:12 AM 53.2°F11.8°C 53.0°F11.7°C 99% 2.7 mph N4.3 kmh N 4.5 mph7.2 kmh 29.36 in994.2 mb 0.12 in3.0 mm 0.00 in/hr0.0 mm/hr 0.13 in3.3 mm
04:11 AM 53.4°F11.9°C 53.2°F11.8°C 99% 2.8 mph N4.5 kmh N 6.0 mph9.7 kmh 29.36 in994.2 mb 0.12 in3.0 mm 0.60 in/hr15.2 mm/hr 0.13 in3.3 mm
04:10 AM 53.4°F11.9°C 53.2°F11.8°C 99% 3.1 mph N5.0 kmh N 6.0 mph9.7 kmh 29.35 in993.9 mb 0.11 in2.8 mm 0.00 in/hr0.0 mm/hr 0.12 in3.0 mm
04:09 AM 53.6°F12.0°C 53.3°F11.8°C 99% 3.4 mph N5.5 kmh N 6.0 mph9.7 kmh 29.35 in993.9 mb 0.11 in2.8 mm 0.00 in/hr0.0 mm/hr 0.12 in3.0 mm
04:08 AM 53.2°F11.8°C 53.0°F11.7°C 99% 3.9 mph N6.3 kmh N 6.0 mph9.7 kmh 29.36 in994.2 mb 0.11 in2.8 mm 0.00 in/hr0.0 mm/hr 0.12 in3.0 mm
04:07 AM 53.6°F12.0°C 53.3°F11.8°C 99% 3.9 mph N6.3 kmh N 6.0 mph9.7 kmh 29.36 in994.2 mb 0.12 in3.0 mm 0.00 in/hr0.0 mm/hr 0.12 in3.0 mm
04:06 AM 53.4°F11.9°C 53.2°F11.8°C 99% 3.9 mph N6.3 kmh N 6.0 mph9.7 kmh 29.36 in994.2 mb 0.12 in3.0 mm 0.00 in/hr0.0 mm/hr 0.12 in3.0 mm
04:05 AM 53.2°F11.8°C 53.0°F11.7°C 99% 3.8 mph N6.1 kmh N 6.0 mph9.7 kmh 29.36 in994.2 mb 0.12 in3.0 mm 0.00 in/hr0.0 mm/hr 0.12 in3.0 mm
04:04 AM 53.4°F11.9°C 53.2°F11.8°C 99% 3.9 mph N6.3 kmh N 6.0 mph9.7 kmh 29.35 in993.9 mb 0.12 in3.0 mm 0.00 in/hr0.0 mm/hr 0.12 in3.0 mm
04:03 AM 53.4°F11.9°C 53.2°F11.8°C 99% 4.0 mph N6.4 kmh N 6.0 mph9.7 kmh 29.36 in994.2 mb 0.12 in3.0 mm 0.00 in/hr0.0 mm/hr 0.12 in3.0 mm
04:02 AM 53.4°F11.9°C 53.2°F11.8°C 99% 4.0 mph N6.4 kmh N 6.0 mph9.7 kmh 29.36 in994.2 mb 0.12 in3.0 mm 0.00 in/hr0.0 mm/hr 0.12 in3.0 mm
04:01 AM 53.4°F11.9°C 53.2°F11.8°C 99% 4.1 mph N6.6 kmh N 6.0 mph9.7 kmh 29.35 in993.9 mb 0.12 in3.0 mm 0.00 in/hr0.0 mm/hr 0.12 in3.0 mm
04:00 AM 53.6°F12.0°C 53.3°F11.8°C 99% 3.7 mph N6.0 kmh N 5.4 mph8.7 kmh 29.35 in993.9 mb 0.12 in3.0 mm 0.00 in/hr0.0 mm/hr 0.12 in3.0 mm
03:59 AM 53.4°F11.9°C 53.2°F11.8°C 99% 3.8 mph N6.1 kmh N 5.4 mph8.7 kmh 29.35 in993.9 mb 0.12 in3.0 mm 0.60 in/hr15.2 mm/hr 0.12 in3.0 mm
03:58 AM 53.4°F11.9°C 53.2°F11.8°C 99% 3.7 mph NNE6.0 kmh NNE 5.4 mph8.7 kmh 29.35 in993.9 mb 0.11 in2.8 mm 0.00 in/hr0.0 mm/hr 0.11 in2.8 mm
03:57 AM 53.6°F12.0°C 53.3°F11.8°C 99% 3.8 mph NNE6.1 kmh NNE 5.4 mph8.7 kmh 29.35 in993.9 mb 0.11 in2.8 mm 0.00 in/hr0.0 mm/hr 0.11 in2.8 mm
03:56 AM 53.2°F11.8°C 53.0°F11.7°C 99% 4.2 mph N6.8 kmh N 8.3 mph13.4 kmh 29.35 in993.9 mb 0.11 in2.8 mm 0.00 in/hr0.0 mm/hr 0.11 in2.8 mm
03:55 AM 53.4°F11.9°C 53.2°F11.8°C 99% 4.6 mph N7.4 kmh N 8.3 mph13.4 kmh 29.35 in993.9 mb 0.11 in2.8 mm 0.00 in/hr0.0 mm/hr 0.11 in2.8 mm
03:54 AM 53.4°F11.9°C 53.2°F11.8°C 99% 4.7 mph N7.6 kmh N 8.3 mph13.4 kmh 29.35 in993.9 mb 0.11 in2.8 mm 1.20 in/hr30.5 mm/hr 0.11 in2.8 mm
03:53 AM 53.6°F12.0°C 53.3°F11.8°C 99% 4.8 mph N7.7 kmh N 8.3 mph13.4 kmh 29.35 in993.9 mb 0.09 in2.3 mm 0.00 in/hr0.0 mm/hr 0.09 in2.3 mm
03:52 AM 53.6°F12.0°C 53.3°F11.8°C 99% 4.8 mph N7.7 kmh N 8.3 mph13.4 kmh 29.35 in993.9 mb 0.09 in2.3 mm 0.00 in/hr0.0 mm/hr 0.09 in2.3 mm
03:51 AM 53.4°F11.9°C 53.2°F11.8°C 99% 4.9 mph N7.9 kmh N 8.3 mph13.4 kmh 29.35 in993.9 mb 0.09 in2.3 mm 0.00 in/hr0.0 mm/hr 0.09 in2.3 mm
03:50 AM 53.4°F11.9°C 53.2°F11.8°C 99% 5.2 mph N8.4 kmh N 8.3 mph13.4 kmh 29.35 in993.9 mb 0.09 in2.3 mm 0.00 in/hr0.0 mm/hr 0.09 in2.3 mm
03:49 AM 53.4°F11.9°C 53.2°F11.8°C 99% 5.2 mph N8.4 kmh N 8.3 mph13.4 kmh 29.35 in993.9 mb 0.09 in2.3 mm 0.00 in/hr0.0 mm/hr 0.09 in2.3 mm
03:48 AM 53.2°F11.8°C 53.0°F11.7°C 99% 5.4 mph N8.7 kmh N 8.3 mph13.4 kmh 29.36 in994.2 mb 0.09 in2.3 mm 0.60 in/hr15.2 mm/hr 0.09 in2.3 mm
03:47 AM 53.4°F11.9°C 53.2°F11.8°C 99% 5.5 mph N8.9 kmh N 8.3 mph13.4 kmh 29.36 in994.2 mb 0.08 in2.0 mm 0.00 in/hr0.0 mm/hr 0.08 in2.0 mm
03:46 AM 53.6°F12.0°C 53.3°F11.8°C 99% 5.4 mph N8.7 kmh N 8.3 mph13.4 kmh 29.36 in994.2 mb 0.08 in2.0 mm 0.00 in/hr0.0 mm/hr 0.08 in2.0 mm
03:45 AM 53.4°F11.9°C 53.2°F11.8°C 99% 5.3 mph N8.5 kmh N 6.0 mph9.7 kmh 29.36 in994.2 mb 0.08 in2.0 mm 0.00 in/hr0.0 mm/hr 0.08 in2.0 mm
03:44 AM 53.2°F11.8°C 53.0°F11.7°C 99% 5.1 mph N8.2 kmh N 6.0 mph9.7 kmh 29.36 in994.2 mb 0.08 in2.0 mm 0.60 in/hr15.2 mm/hr 0.08 in2.0 mm
03:43 AM 53.4°F11.9°C 53.2°F11.8°C 99% 5.0 mph N8.0 kmh N 6.0 mph9.7 kmh 29.36 in994.2 mb 0.07 in1.8 mm 0.00 in/hr0.0 mm/hr 0.07 in1.8 mm
03:42 AM 53.4°F11.9°C 53.2°F11.8°C 99% 4.7 mph N7.6 kmh N 6.0 mph9.7 kmh 29.36 in994.2 mb 0.07 in1.8 mm 0.00 in/hr0.0 mm/hr 0.07 in1.8 mm
03:41 AM 53.4°F11.9°C 53.2°F11.8°C 99% 4.3 mph N6.9 kmh N 6.0 mph9.7 kmh 29.36 in994.2 mb 0.07 in1.8 mm 0.00 in/hr0.0 mm/hr 0.07 in1.8 mm
03:40 AM 53.6°F12.0°C 53.3°F11.8°C 99% 3.7 mph NNE6.0 kmh NNE 6.0 mph9.7 kmh 29.36 in994.2 mb 0.07 in1.8 mm 0.60 in/hr15.2 mm/hr 0.07 in1.8 mm
03:39 AM 53.6°F12.0°C 53.3°F11.8°C 99% 3.4 mph NNE5.5 kmh NNE 6.0 mph9.7 kmh 29.36 in994.2 mb 0.06 in1.5 mm 0.00 in/hr0.0 mm/hr 0.06 in1.5 mm
03:38 AM 53.8°F12.1°C 53.5°F11.9°C 99% 2.8 mph NNE4.5 kmh NNE 6.0 mph9.7 kmh 29.36 in994.2 mb 0.06 in1.5 mm 0.00 in/hr0.0 mm/hr 0.06 in1.5 mm
03:37 AM 53.6°F12.0°C 53.3°F11.8°C 99% 2.2 mph NNE3.5 kmh NNE 6.0 mph9.7 kmh 29.36 in994.2 mb 0.06 in1.5 mm 0.00 in/hr0.0 mm/hr 0.06 in1.5 mm
03:36 AM 53.6°F12.0°C 53.3°F11.8°C 99% 1.6 mph NE2.6 kmh NE 6.0 mph9.7 kmh 29.36 in994.2 mb 0.06 in1.5 mm 0.60 in/hr15.2 mm/hr 0.06 in1.5 mm
03:35 AM 53.6°F12.0°C 53.3°F11.8°C 99% 1.0 mph NE1.6 kmh NE 4.5 mph7.2 kmh 29.36 in994.2 mb 0.05 in1.3 mm 0.60 in/hr15.2 mm/hr 0.05 in1.3 mm
03:34 AM 53.4°F11.9°C 53.2°F11.8°C 99% 0.8 mph E1.3 kmh E 4.5 mph7.2 kmh 29.36 in994.2 mb 0.04 in1.0 mm 0.00 in/hr0.0 mm/hr 0.04 in1.0 mm
03:33 AM 53.2°F11.8°C 53.0°F11.7°C 99% 0.7 mph ESE1.1 kmh ESE 2.2 mph3.5 kmh 29.36 in994.2 mb 0.04 in1.0 mm 0.00 in/hr0.0 mm/hr 0.04 in1.0 mm
03:32 AM 53.4°F11.9°C 53.2°F11.8°C 99% 1.2 mph NE1.9 kmh NE 7.6 mph12.2 kmh 29.36 in994.2 mb 0.04 in1.0 mm 1.20 in/hr30.5 mm/hr 0.04 in1.0 mm
03:31 AM 53.4°F11.9°C 53.2°F11.8°C 99% 1.7 mph NNE2.7 kmh NNE 7.6 mph12.2 kmh 29.36 in994.2 mb 0.02 in0.5 mm 0.00 in/hr0.0 mm/hr 0.02 in0.5 mm
03:30 AM 53.4°F11.9°C 53.2°F11.8°C 99% 2.4 mph NE3.9 kmh NE 7.6 mph12.2 kmh 29.36 in994.2 mb 0.02 in0.5 mm 0.00 in/hr0.0 mm/hr 0.02 in0.5 mm
03:29 AM 53.8°F12.1°C 53.5°F11.9°C 99% 3.0 mph NNE4.8 kmh NNE 7.6 mph12.2 kmh 29.36 in994.2 mb 0.02 in0.5 mm 0.00 in/hr0.0 mm/hr 0.02 in0.5 mm
03:28 AM 53.6°F12.0°C 53.3°F11.8°C 99% 3.6 mph NNE5.8 kmh NNE 7.6 mph12.2 kmh 29.36 in994.2 mb 0.02 in0.5 mm 0.60 in/hr15.2 mm/hr 0.02 in0.5 mm
03:27 AM 53.4°F11.9°C 53.2°F11.8°C 99% 4.2 mph NNE6.8 kmh NNE 7.6 mph12.2 kmh 29.35 in993.9 mb 0.01 in0.3 mm 0.00 in/hr0.0 mm/hr 0.01 in0.3 mm
03:26 AM 53.4°F11.9°C 53.2°F11.8°C 99% 4.6 mph NNE7.4 kmh NNE 7.6 mph12.2 kmh 29.35 in993.9 mb 0.01 in0.3 mm 0.00 in/hr0.0 mm/hr 0.01 in0.3 mm
03:25 AM 53.6°F12.0°C 53.3°F11.8°C 99% 5.2 mph NNE8.4 kmh NNE 7.6 mph12.2 kmh 29.35 in993.9 mb 0.01 in0.3 mm 0.00 in/hr0.0 mm/hr 0.01 in0.3 mm
03:24 AM 53.4°F11.9°C 53.2°F11.8°C 99% 5.5 mph NNE8.9 kmh NNE 7.6 mph12.2 kmh 29.35 in993.9 mb 0.01 in0.3 mm 0.00 in/hr0.0 mm/hr 0.01 in0.3 mm
03:23 AM 53.6°F12.0°C 53.3°F11.8°C 99% 5.7 mph NNE9.2 kmh NNE 7.6 mph12.2 kmh 29.35 in993.9 mb 0.01 in0.3 mm 0.00 in/hr0.0 mm/hr 0.01 in0.3 mm
03:22 AM 53.6°F12.0°C 53.3°F11.8°C 99% 5.5 mph NNE8.9 kmh NNE 7.6 mph12.2 kmh 29.36 in994.2 mb 0.01 in0.3 mm 0.00 in/hr0.0 mm/hr 0.01 in0.3 mm
03:21 AM 53.6°F12.0°C 53.3°F11.8°C 99% 5.5 mph NNE8.9 kmh NNE 7.6 mph12.2 kmh 29.35 in993.9 mb 0.01 in0.3 mm 0.00 in/hr0.0 mm/hr 0.01 in0.3 mm
03:20 AM 53.1°F11.7°C 52.8°F11.6°C 99% 5.6 mph NNE9.0 kmh NNE 10.7 mph17.2 kmh 29.35 in993.9 mb 0.01 in0.3 mm 0.00 in/hr0.0 mm/hr 0.01 in0.3 mm
03:19 AM 53.6°F12.0°C 53.3°F11.8°C 99% 6.0 mph N9.7 kmh N 10.7 mph17.2 kmh 29.35 in993.9 mb 0.01 in0.3 mm 0.00 in/hr0.0 mm/hr 0.01 in0.3 mm
03:18 AM 53.4°F11.9°C 53.2°F11.8°C 99% 6.1 mph N9.8 kmh N 10.7 mph17.2 kmh 29.35 in993.9 mb 0.01 in0.3 mm 0.00 in/hr0.0 mm/hr 0.01 in0.3 mm
03:17 AM 53.4°F11.9°C 53.2°F11.8°C 99% 6.2 mph N10.0 kmh N 10.7 mph17.2 kmh 29.35 in993.9 mb 0.01 in0.3 mm 0.00 in/hr0.0 mm/hr 0.01 in0.3 mm
03:16 AM 53.2°F11.8°C 53.0°F11.7°C 99% 6.6 mph N10.6 kmh N 10.7 mph17.2 kmh 29.35 in993.9 mb 0.01 in0.3 mm 0.00 in/hr0.0 mm/hr 0.01 in0.3 mm
03:15 AM 53.4°F11.9°C 53.2°F11.8°C 99% 6.8 mph N10.9 kmh N 10.7 mph17.2 kmh 29.36 in994.2 mb 0.01 in0.3 mm 0.00 in/hr0.0 mm/hr 0.01 in0.3 mm
03:14 AM 53.8°F12.1°C 53.5°F11.9°C 99% 6.9 mph N11.1 kmh N 10.7 mph17.2 kmh 29.36 in994.2 mb 0.01 in0.3 mm 0.00 in/hr0.0 mm/hr 0.01 in0.3 mm
03:13 AM 53.8°F12.1°C 53.5°F11.9°C 99% 7.0 mph N11.3 kmh N 10.7 mph17.2 kmh 29.36 in994.2 mb 0.01 in0.3 mm 0.00 in/hr0.0 mm/hr 0.01 in0.3 mm
03:12 AM 53.6°F12.0°C 53.3°F11.8°C 99% 7.5 mph N12.1 kmh N 12.1 mph19.5 kmh 29.36 in994.2 mb 0.01 in0.3 mm 0.00 in/hr0.0 mm/hr 0.01 in0.3 mm
03:11 AM 53.4°F11.9°C 53.2°F11.8°C 99% 7.9 mph N12.7 kmh N 12.1 mph19.5 kmh 29.36 in994.2 mb 0.01 in0.3 mm 0.00 in/hr0.0 mm/hr 0.01 in0.3 mm
03:10 AM 53.6°F12.0°C 53.3°F11.8°C 99% 8.0 mph N12.9 kmh N 12.1 mph19.5 kmh 29.36 in994.2 mb 0.01 in0.3 mm 0.00 in/hr0.0 mm/hr 0.01 in0.3 mm
03:09 AM 53.8°F12.1°C 53.5°F11.9°C 99% 8.0 mph N12.9 kmh N 12.1 mph19.5 kmh 29.36 in994.2 mb 0.01 in0.3 mm 0.00 in/hr0.0 mm/hr 0.01 in0.3 mm
03:08 AM 53.4°F11.9°C 53.2°F11.8°C 99% 8.5 mph N13.7 kmh N 12.1 mph19.5 kmh 29.36 in994.2 mb 0.01 in0.3 mm 0.60 in/hr15.2 mm/hr 0.01 in0.3 mm
03:07 AM 53.6°F12.0°C 53.3°F11.8°C 99% 8.8 mph N14.2 kmh N 13.0 mph20.9 kmh 29.36 in994.2 mb 0.00 in0.0 mm 0.00 in/hr0.0 mm/hr 0.00 in0.0 mm
03:06 AM 53.8°F12.1°C 53.5°F11.9°C 99% 8.9 mph N14.3 kmh N 13.0 mph20.9 kmh 29.36 in994.2 mb 0.00 in0.0 mm 0.00 in/hr0.0 mm/hr 0.00 in0.0 mm
03:05 AM 53.8°F12.1°C 53.5°F11.9°C 99% 9.3 mph N15.0 kmh N 13.0 mph20.9 kmh 29.36 in994.2 mb 0.00 in0.0 mm 0.00 in/hr0.0 mm/hr 0.00 in0.0 mm
03:04 AM 54.1°F12.3°C 53.9°F12.2°C 99% 9.5 mph N15.3 kmh N 13.0 mph20.9 kmh 29.36 in994.2 mb 0.00 in0.0 mm 0.00 in/hr0.0 mm/hr 0.00 in0.0 mm
03:03 AM 53.4°F11.9°C 53.2°F11.8°C 99% 9.7 mph N15.6 kmh N 13.0 mph20.9 kmh 29.36 in994.2 mb 0.00 in0.0 mm 0.00 in/hr0.0 mm/hr 0.00 in0.0 mm
03:02 AM 53.6°F12.0°C 53.3°F11.8°C 99% 9.5 mph N15.3 kmh N 13.0 mph20.9 kmh 29.36 in994.2 mb 0.00 in0.0 mm 0.00 in/hr0.0 mm/hr 0.00 in0.0 mm
03:01 AM 53.8°F12.1°C 53.5°F11.9°C 99% 9.4 mph N15.1 kmh N 13.0 mph20.9 kmh 29.36 in994.2 mb 0.00 in0.0 mm 0.00 in/hr0.0 mm/hr 0.00 in0.0 mm
03:00 AM 53.8°F12.1°C 53.5°F11.9°C 99% 9.5 mph N15.3 kmh N 13.0 mph20.9 kmh 29.36 in994.2 mb 0.00 in0.0 mm 0.00 in/hr0.0 mm/hr 0.00 in0.0 mm
02:59 AM 53.8°F12.1°C 53.5°F11.9°C 99% 9.6 mph N15.4 kmh N 13.0 mph20.9 kmh 29.36 in994.2 mb 0.00 in0.0 mm 0.00 in/hr0.0 mm/hr 0.00 in0.0 mm
02:58 AM 53.8°F12.1°C 53.5°F11.9°C 99% 9.6 mph N15.4 kmh N 13.0 mph20.9 kmh 29.36 in994.2 mb 0.00 in0.0 mm 0.00 in/hr0.0 mm/hr 0.00 in0.0 mm
02:57 AM 53.8°F12.1°C 53.5°F11.9°C 99% 9.5 mph N15.3 kmh N 13.0 mph20.9 kmh 29.36 in994.2 mb 0.00 in0.0 mm 0.00 in/hr0.0 mm/hr 0.00 in0.0 mm
02:56 AM 53.8°F12.1°C 53.5°F11.9°C 99% 9.3 mph N15.0 kmh N 13.0 mph20.9 kmh 29.36 in994.2 mb 0.00 in0.0 mm 0.00 in/hr0.0 mm/hr 0.00 in0.0 mm
02:55 AM 53.8°F12.1°C 53.5°F11.9°C 99% 9.1 mph NNE14.6 kmh NNE 11.4 mph18.3 kmh 29.37 in994.6 mb 0.00 in0.0 mm 0.00 in/hr0.0 mm/hr 0.00 in0.0 mm
02:54 AM 53.8°F12.1°C 53.5°F11.9°C 99% 9.7 mph N15.6 kmh N 13.6 mph21.9 kmh 29.36 in994.2 mb 0.00 in0.0 mm 0.00 in/hr0.0 mm/hr 0.00 in0.0 mm
02:53 AM 54.0°F12.2°C 53.7°F12.1°C 99% 10.1 mph N16.3 kmh N 13.6 mph21.9 kmh 29.36 in994.2 mb 0.00 in0.0 mm 0.00 in/hr0.0 mm/hr 0.00 in0.0 mm
02:52 AM 54.0°F12.2°C 53.7°F12.1°C 99% 10.4 mph N16.7 kmh N 13.6 mph21.9 kmh 29.36 in994.2 mb 0.00 in0.0 mm 0.00 in/hr0.0 mm/hr 0.00 in0.0 mm
02:51 AM 54.0°F12.2°C 53.7°F12.1°C 99% 10.5 mph N16.9 kmh N 13.6 mph21.9 kmh 29.36 in994.2 mb 0.00 in0.0 mm 0.00 in/hr0.0 mm/hr 0.00 in0.0 mm
02:50 AM 53.8°F12.1°C 53.5°F11.9°C 99% 10.6 mph N17.1 kmh N 13.6 mph21.9 kmh 29.36 in994.2 mb 0.00 in0.0 mm 0.00 in/hr0.0 mm/hr 0.00 in0.0 mm
02:49 AM 54.0°F12.2°C 53.7°F12.1°C 99% 10.6 mph N17.1 kmh N 13.6 mph21.9 kmh 29.36 in994.2 mb 0.00 in0.0 mm 0.00 in/hr0.0 mm/hr 0.00 in0.0 mm
02:48 AM 53.8°F12.1°C 53.5°F11.9°C 99% 10.4 mph N16.7 kmh N 13.6 mph21.9 kmh 29.36 in994.2 mb 0.00 in0.0 mm 0.00 in/hr0.0 mm/hr 0.00 in0.0 mm
02:47 AM 54.0°F12.2°C 53.7°F12.1°C 99% 10.6 mph N17.1 kmh N 13.6 mph21.9 kmh 29.36 in994.2 mb 0.00 in0.0 mm 0.00 in/hr0.0 mm/hr 0.00 in0.0 mm
02:46 AM 53.8°F12.1°C 53.5°F11.9°C 99% 10.9 mph N17.5 kmh N 13.6 mph21.9 kmh 29.36 in994.2 mb 0.00 in0.0 mm 0.00 in/hr0.0 mm/hr 0.00 in0.0 mm
02:45 AM 54.1°F12.3°C 53.9°F12.2°C 99% 10.6 mph N17.1 kmh N 13.6 mph21.9 kmh 29.36 in994.2 mb 0.00 in0.0 mm 0.00 in/hr0.0 mm/hr 0.00 in0.0 mm
02:44 AM 53.8°F12.1°C 53.5°F11.9°C 99% 10.2 mph N16.4 kmh N 13.6 mph21.9 kmh 29.36 in994.2 mb 0.00 in0.0 mm 0.00 in/hr0.0 mm/hr 0.00 in0.0 mm
02:43 AM 54.0°F12.2°C 53.7°F12.1°C 99% 10.2 mph N16.4 kmh N 12.1 mph19.5 kmh 29.36 in994.2 mb 0.00 in0.0 mm 0.00 in/hr0.0 mm/hr 0.00 in0.0 mm
02:42 AM 54.1°F12.3°C 53.9°F12.2°C 99% 10.2 mph N16.4 kmh N 12.1 mph19.5 kmh 29.36 in994.2 mb 0.00 in0.0 mm 0.00 in/hr0.0 mm/hr 0.00 in0.0 mm
02:41 AM 54.0°F12.2°C 53.7°F12.1°C 99% 10.0 mph N16.1 kmh N 12.1 mph19.5 kmh 29.36 in994.2 mb 0.00 in0.0 mm 0.00 in/hr0.0 mm/hr 0.00 in0.0 mm
02:40 AM 54.0°F12.2°C 53.7°F12.1°C 99% 9.7 mph N15.6 kmh N 12.1 mph19.5 kmh 29.36 in994.2 mb 0.00 in0.0 mm 0.00 in/hr0.0 mm/hr 0.00 in0.0 mm
02:39 AM 53.8°F12.1°C 53.5°F11.9°C 99% 9.7 mph N15.6 kmh N 12.1 mph19.5 kmh 29.36 in994.2 mb 0.00 in0.0 mm 0.00 in/hr0.0 mm/hr 0.00 in0.0 mm
02:38 AM 54.0°F12.2°C 53.7°F12.1°C 99% 9.9 mph N15.9 kmh N 12.1 mph19.5 kmh 29.36 in994.2 mb 0.00 in0.0 mm 0.00 in/hr0.0 mm/hr 0.00 in0.0 mm
02:37 AM 54.0°F12.2°C 53.7°F12.1°C 99% 9.7 mph N15.6 kmh N 12.1 mph19.5 kmh 29.36 in994.2 mb 0.00 in0.0 mm 0.00 in/hr0.0 mm/hr 0.00 in0.0 mm
02:36 AM 53.8°F12.1°C 53.5°F11.9°C 99% 9.6 mph N15.4 kmh N 12.1 mph19.5 kmh 29.35 in993.9 mb 0.00 in0.0 mm 0.00 in/hr0.0 mm/hr 0.00 in0.0 mm
02:35 AM 54.0°F12.2°C 53.7°F12.1°C 99% 9.8 mph N15.8 kmh N 12.1 mph19.5 kmh 29.36 in994.2 mb 0.00 in0.0 mm 0.00 in/hr0.0 mm/hr 0.00 in0.0 mm
02:34 AM 53.8°F12.1°C 53.5°F11.9°C 99% 9.8 mph N15.8 kmh N 12.1 mph19.5 kmh 29.36 in994.2 mb 0.00 in0.0 mm 0.00 in/hr0.0 mm/hr 0.00 in0.0 mm
02:33 AM 54.3°F12.4°C 54.1°F12.3°C 99% 9.6 mph N15.4 kmh N 12.1 mph19.5 kmh 29.36 in994.2 mb 0.00 in0.0 mm 0.00 in/hr0.0 mm/hr 0.00 in0.0 mm
02:32 AM 54.0°F12.2°C 53.7°F12.1°C 99% 9.5 mph N15.3 kmh N 12.1 mph19.5 kmh 29.36 in994.2 mb 0.00 in0.0 mm 0.00 in/hr0.0 mm/hr 0.00 in0.0 mm
02:31 AM 54.1°F12.3°C 53.9°F12.2°C 99% 9.5 mph N15.3 kmh N 12.1 mph19.5 kmh 29.36 in994.2 mb 0.00 in0.0 mm 0.00 in/hr0.0 mm/hr 0.00 in0.0 mm
02:30 AM 54.1°F12.3°C 53.9°F12.2°C 99% 9.7 mph N15.6 kmh N 12.1 mph19.5 kmh 29.36 in994.2 mb 0.00 in0.0 mm 0.00 in/hr0.0 mm/hr 0.00 in0.0 mm
02:29 AM 54.1°F12.3°C 53.9°F12.2°C 99% 9.3 mph N15.0 kmh N 12.1 mph19.5 kmh 29.36 in994.2 mb 0.00 in0.0 mm 0.00 in/hr0.0 mm/hr 0.00 in0.0 mm
02:28 AM 54.0°F12.2°C 53.7°F12.1°C 99% 9.0 mph N14.5 kmh N 10.7 mph17.2 kmh 29.36 in994.2 mb 0.00 in0.0 mm 0.00 in/hr0.0 mm/hr 0.00 in0.0 mm
02:27 AM 54.3°F12.4°C 54.1°F12.3°C 99% 8.9 mph N14.3 kmh N 10.7 mph17.2 kmh 29.36 in994.2 mb 0.00 in0.0 mm 0.00 in/hr0.0 mm/hr 0.00 in0.0 mm
02:26 AM 54.1°F12.3°C 53.9°F12.2°C 99% 8.7 mph N14.0 kmh N 10.7 mph17.2 kmh 29.36 in994.2 mb 0.00 in0.0 mm 0.00 in/hr0.0 mm/hr 0.00 in0.0 mm
02:25 AM 54.3°F12.4°C 54.1°F12.3°C 99% 8.7 mph N14.0 kmh N 10.7 mph17.2 kmh 29.36 in994.2 mb 0.00 in0.0 mm 0.00 in/hr0.0 mm/hr 0.00 in0.0 mm
02:24 AM 54.3°F12.4°C 54.1°F12.3°C 99% 8.4 mph N13.5 kmh N 10.7 mph17.2 kmh 29.36 in994.2 mb 0.00 in0.0 mm 0.00 in/hr0.0 mm/hr 0.00 in0.0 mm
02:23 AM 54.1°F12.3°C 53.9°F12.2°C 99% 8.3 mph N13.4 kmh N 10.7 mph17.2 kmh 29.36 in994.2 mb 0.00 in0.0 mm 0.00 in/hr0.0 mm/hr 0.00 in0.0 mm
02:22 AM 54.1°F12.3°C 53.9°F12.2°C 99% 8.0 mph N12.9 kmh N 10.7 mph17.2 kmh 29.35 in993.9 mb 0.00 in0.0 mm 0.00 in/hr0.0 mm/hr 0.00 in0.0 mm
02:21 AM 54.0°F12.2°C 53.7°F12.1°C 99% 7.8 mph N12.6 kmh N 9.8 mph15.8 kmh 29.36 in994.2 mb 0.00 in0.0 mm 0.00 in/hr0.0 mm/hr 0.00 in0.0 mm
02:20 AM 54.3°F12.4°C 54.1°F12.3°C 99% 7.6 mph N12.2 kmh N 9.8 mph15.8 kmh 29.36 in994.2 mb 0.00 in0.0 mm 0.00 in/hr0.0 mm/hr 0.00 in0.0 mm
02:19 AM 54.1°F12.3°C 53.9°F12.2°C 99% 7.7 mph N12.4 kmh N 9.8 mph15.8 kmh 29.36 in994.2 mb 0.00 in0.0 mm 0.00 in/hr0.0 mm/hr 0.00 in0.0 mm
02:18 AM 54.0°F12.2°C 53.7°F12.1°C 99% 7.7 mph N12.4 kmh N 9.8 mph15.8 kmh 29.36 in994.2 mb 0.00 in0.0 mm 0.00 in/hr0.0 mm/hr 0.00 in0.0 mm
02:17 AM 54.1°F12.3°C 53.9°F12.2°C 99% 7.6 mph N12.2 kmh N 9.8 mph15.8 kmh 29.36 in994.2 mb 0.00 in0.0 mm 0.00 in/hr0.0 mm/hr 0.00 in0.0 mm
02:16 AM 54.3°F12.4°C 54.1°F12.3°C 99% 7.6 mph N12.2 kmh N 9.8 mph15.8 kmh 29.35 in993.9 mb 0.00 in0.0 mm 0.00 in/hr0.0 mm/hr 0.00 in0.0 mm
02:15 AM 54.1°F12.3°C 53.9°F12.2°C 99% 7.4 mph N11.9 kmh N 9.8 mph15.8 kmh 29.36 in994.2 mb 0.00 in0.0 mm 0.00 in/hr0.0 mm/hr 0.00 in0.0 mm
02:14 AM 54.3°F12.4°C 54.1°F12.3°C 99% 7.4 mph N11.9 kmh N 9.8 mph15.8 kmh 29.36 in994.2 mb 0.00 in0.0 mm 0.00 in/hr0.0 mm/hr 0.00 in0.0 mm
02:13 AM 54.1°F12.3°C 53.9°F12.2°C 99% 7.1 mph N11.4 kmh N 8.3 mph13.4 kmh 29.36 in994.2 mb 0.00 in0.0 mm 0.00 in/hr0.0 mm/hr 0.00 in0.0 mm
02:12 AM 54.3°F12.4°C 54.1°F12.3°C 99% 7.1 mph N11.4 kmh N 8.3 mph13.4 kmh 29.36 in994.2 mb 0.00 in0.0 mm 0.00 in/hr0.0 mm/hr 0.00 in0.0 mm
02:11 AM 54.1°F12.3°C 53.9°F12.2°C 99% 6.8 mph N10.9 kmh N 8.3 mph13.4 kmh 29.36 in994.2 mb 0.00 in0.0 mm 0.00 in/hr0.0 mm/hr 0.00 in0.0 mm
02:10 AM 54.1°F12.3°C 53.9°F12.2°C 99% 6.7 mph N10.8 kmh N 8.3 mph13.4 kmh 29.36 in994.2 mb 0.00 in0.0 mm 0.00 in/hr0.0 mm/hr 0.00 in0.0 mm
02:09 AM 54.3°F12.4°C 54.1°F12.3°C 99% 6.6 mph N10.6 kmh N 8.3 mph13.4 kmh 29.36 in994.2 mb 0.00 in0.0 mm 0.00 in/hr0.0 mm/hr 0.00 in0.0 mm
02:08 AM 54.1°F12.3°C 53.9°F12.2°C 99% 6.7 mph N10.8 kmh N 9.2 mph14.8 kmh 29.36 in994.2 mb 0.00 in0.0 mm 0.00 in/hr0.0 mm/hr 0.00 in0.0 mm
02:07 AM 54.3°F12.4°C 54.1°F12.3°C 99% 6.5 mph N10.5 kmh N 9.2 mph14.8 kmh 29.36 in994.2 mb 0.00 in0.0 mm 0.00 in/hr0.0 mm/hr 0.00 in0.0 mm
02:06 AM 54.3°F12.4°C 54.1°F12.3°C 99% 6.5 mph N10.5 kmh N 9.2 mph14.8 kmh 29.35 in993.9 mb 0.00 in0.0 mm 0.00 in/hr0.0 mm/hr 0.00 in0.0 mm
02:05 AM 54.3°F12.4°C 54.1°F12.3°C 99% 6.6 mph N10.6 kmh N 9.2 mph14.8 kmh 29.35 in993.9 mb 0.00 in0.0 mm 0.00 in/hr0.0 mm/hr 0.00 in0.0 mm
02:04 AM 54.3°F12.4°C 54.1°F12.3°C 99% 6.7 mph N10.8 kmh N 9.2 mph14.8 kmh 29.35 in993.9 mb 0.00 in0.0 mm 0.00 in/hr0.0 mm/hr 0.00 in0.0 mm
02:03 AM 54.1°F12.3°C 53.9°F12.2°C 99% 6.8 mph N10.9 kmh N 9.2 mph14.8 kmh 29.35 in993.9 mb 0.00 in0.0 mm 0.00 in/hr0.0 mm/hr 0.00 in0.0 mm
02:02 AM 54.1°F12.3°C 53.9°F12.2°C 99% 6.7 mph N10.8 kmh N 9.2 mph14.8 kmh 29.36 in994.2 mb 0.00 in0.0 mm 0.00 in/hr0.0 mm/hr 0.00 in0.0 mm
02:01 AM 54.3°F12.4°C 54.1°F12.3°C 99% 7.0 mph N11.3 kmh N 9.2 mph14.8 kmh 29.36 in994.2 mb 0.00 in0.0 mm 0.00 in/hr0.0 mm/hr 0.00 in0.0 mm
02:00 AM 54.3°F12.4°C 54.1°F12.3°C 99% 7.0 mph N11.3 kmh N 9.2 mph14.8 kmh 29.36 in994.2 mb 0.00 in0.0 mm 0.00 in/hr0.0 mm/hr 0.00 in0.0 mm
01:59 AM 54.3°F12.4°C 54.1°F12.3°C 99% 6.7 mph N10.8 kmh N 9.2 mph14.8 kmh 29.36 in994.2 mb 0.00 in0.0 mm 0.00 in/hr0.0 mm/hr 0.00 in0.0 mm
01:58 AM 54.1°F12.3°C 53.9°F12.2°C 99% 6.8 mph N10.9 kmh N 9.8 mph15.8 kmh 29.36 in994.2 mb 0.00 in0.0 mm 0.00 in/hr0.0 mm/hr 0.00 in0.0 mm
01:57 AM 54.1°F12.3°C 53.9°F12.2°C 99% 7.0 mph N11.3 kmh N 9.8 mph15.8 kmh 29.36 in994.2 mb 0.00 in0.0 mm 0.00 in/hr0.0 mm/hr 0.00 in0.0 mm
01:56 AM 54.1°F12.3°C 53.9°F12.2°C 99% 7.0 mph NNW11.3 kmh NNW 9.8 mph15.8 kmh 29.36 in994.2 mb 0.00 in0.0 mm 0.00 in/hr0.0 mm/hr 0.00 in0.0 mm
01:55 AM 54.7°F12.6°C 54.4°F12.4°C 99% 7.3 mph NNW11.7 kmh NNW 11.4 mph18.3 kmh 29.36 in994.2 mb 0.00 in0.0 mm 0.00 in/hr0.0 mm/hr 0.00 in0.0 mm
01:54 AM 54.3°F12.4°C 54.1°F12.3°C 99% 7.3 mph N11.7 kmh N 11.4 mph18.3 kmh 29.36 in994.2 mb 0.00 in0.0 mm 0.00 in/hr0.0 mm/hr 0.00 in0.0 mm
01:53 AM 54.5°F12.5°C 54.2°F12.3°C 99% 7.1 mph N11.4 kmh N 11.4 mph18.3 kmh 29.36 in994.2 mb 0.00 in0.0 mm 0.00 in/hr0.0 mm/hr 0.00 in0.0 mm
01:52 AM 54.5°F12.5°C 54.2°F12.3°C 99% 7.3 mph N11.7 kmh N 11.4 mph18.3 kmh 29.36 in994.2 mb 0.00 in0.0 mm 0.00 in/hr0.0 mm/hr 0.00 in0.0 mm
01:51 AM 54.1°F12.3°C 53.9°F12.2°C 99% 7.2 mph N11.6 kmh N 11.4 mph18.3 kmh 29.36 in994.2 mb 0.00 in0.0 mm 0.00 in/hr0.0 mm/hr 0.00 in0.0 mm
01:50 AM 54.5°F12.5°C 54.2°F12.3°C 99% 7.3 mph N11.7 kmh N 11.4 mph18.3 kmh 29.36 in994.2 mb 0.00 in0.0 mm 0.00 in/hr0.0 mm/hr 0.00 in0.0 mm
01:49 AM 54.5°F12.5°C 54.2°F12.3°C 99% 7.5 mph N12.1 kmh N 11.4 mph18.3 kmh 29.36 in994.2 mb 0.00 in0.0 mm 0.00 in/hr0.0 mm/hr 0.00 in0.0 mm
01:48 AM 54.3°F12.4°C 54.1°F12.3°C 99% 7.4 mph N11.9 kmh N 11.4 mph18.3 kmh 29.36 in994.2 mb 0.00 in0.0 mm 0.00 in/hr0.0 mm/hr 0.00 in0.0 mm
01:47 AM 54.3°F12.4°C 54.1°F12.3°C 99% 7.5 mph N12.1 kmh N 11.4 mph18.3 kmh 29.36 in994.2 mb 0.00 in0.0 mm 0.00 in/hr0.0 mm/hr 0.00 in0.0 mm
01:46 AM 54.5°F12.5°C 54.2°F12.3°C 99% 7.3 mph N11.7 kmh N 11.4 mph18.3 kmh 29.36 in994.2 mb 0.00 in0.0 mm 0.00 in/hr0.0 mm/hr 0.00 in0.0 mm
01:45 AM 54.3°F12.4°C 54.1°F12.3°C 99% 6.8 mph N10.9 kmh N 11.4 mph18.3 kmh 29.36 in994.2 mb 0.00 in0.0 mm 0.00 in/hr0.0 mm/hr 0.00 in0.0 mm
01:44 AM 54.3°F12.4°C 54.1°F12.3°C 99% 6.7 mph N10.8 kmh N 10.7 mph17.2 kmh 29.36 in994.2 mb 0.00 in0.0 mm 0.00 in/hr0.0 mm/hr 0.00 in0.0 mm
01:43 AM 54.5°F12.5°C 54.2°F12.3°C 99% 6.9 mph N11.1 kmh N 10.7 mph17.2 kmh 29.36 in994.2 mb 0.00 in0.0 mm 0.00 in/hr0.0 mm/hr 0.00 in0.0 mm
01:42 AM 54.5°F12.5°C 54.2°F12.3°C 99% 6.9 mph N11.1 kmh N 10.7 mph17.2 kmh 29.36 in994.2 mb 0.00 in0.0 mm 0.00 in/hr0.0 mm/hr 0.00 in0.0 mm
01:41 AM 54.5°F12.5°C 54.2°F12.3°C 99% 7.3 mph N11.7 kmh N 10.7 mph17.2 kmh 29.36 in994.2 mb 0.00 in0.0 mm 0.00 in/hr0.0 mm/hr 0.00 in0.0 mm
01:40 AM 54.5°F12.5°C 54.2°F12.3°C 99% 7.3 mph N11.7 kmh N 9.8 mph15.8 kmh 29.37 in994.6 mb 0.00 in0.0 mm 0.00 in/hr0.0 mm/hr 0.00 in0.0 mm
01:39 AM 54.5°F12.5°C 54.2°F12.3°C 99% 7.6 mph N12.2 kmh N 10.7 mph17.2 kmh 29.36 in994.2 mb 0.00 in0.0 mm 0.00 in/hr0.0 mm/hr 0.00 in0.0 mm
01:38 AM 54.7°F12.6°C 54.4°F12.4°C 99% 7.6 mph N12.2 kmh N 10.7 mph17.2 kmh 29.37 in994.6 mb 0.00 in0.0 mm 0.00 in/hr0.0 mm/hr 0.00 in0.0 mm
01:37 AM 54.5°F12.5°C 54.2°F12.3°C 99% 7.5 mph N12.1 kmh N 10.7 mph17.2 kmh 29.37 in994.6 mb 0.00 in0.0 mm 0.00 in/hr0.0 mm/hr 0.00 in0.0 mm
01:36 AM 54.5°F12.5°C 54.2°F12.3°C 99% 7.5 mph N12.1 kmh N 10.7 mph17.2 kmh 29.37 in994.6 mb 0.00 in0.0 mm 0.00 in/hr0.0 mm/hr 0.00 in0.0 mm
01:35 AM 54.5°F12.5°C 54.2°F12.3°C 99% 7.4 mph N11.9 kmh N 10.7 mph17.2 kmh 29.37 in994.6 mb 0.00 in0.0 mm 0.00 in/hr0.0 mm/hr 0.00 in0.0 mm
01:34 AM 54.5°F12.5°C 54.2°F12.3°C 99% 7.3 mph N11.7 kmh N 10.7 mph17.2 kmh 29.37 in994.6 mb 0.00 in0.0 mm 0.00 in/hr0.0 mm/hr 0.00 in0.0 mm
01:33 AM 54.3°F12.4°C 54.1°F12.3°C 99% 7.0 mph N11.3 kmh N 10.7 mph17.2 kmh 29.37 in994.6 mb 0.00 in0.0 mm 0.00 in/hr0.0 mm/hr 0.00 in0.0 mm
01:32 AM 54.5°F12.5°C 54.2°F12.3°C 99% 6.7 mph NNE10.8 kmh NNE 10.7 mph17.2 kmh 29.38 in994.9 mb 0.00 in0.0 mm 0.00 in/hr0.0 mm/hr 0.00 in0.0 mm
01:31 AM 54.5°F12.5°C 54.2°F12.3°C 99% 6.3 mph NNE10.1 kmh NNE 10.7 mph17.2 kmh 29.37 in994.6 mb 0.00 in0.0 mm 0.00 in/hr0.0 mm/hr 0.00 in0.0 mm
01:30 AM 54.5°F12.5°C 54.2°F12.3°C 99% 6.1 mph N9.8 kmh N 10.7 mph17.2 kmh 29.38 in994.9 mb 0.00 in0.0 mm 0.00 in/hr0.0 mm/hr 0.00 in0.0 mm
01:29 AM 54.5°F12.5°C 54.2°F12.3°C 99% 5.5 mph NNE8.9 kmh NNE 7.6 mph12.2 kmh 29.38 in994.9 mb 0.00 in0.0 mm 0.00 in/hr0.0 mm/hr 0.00 in0.0 mm
01:28 AM 54.5°F12.5°C 54.2°F12.3°C 99% 5.3 mph NNE8.5 kmh NNE 7.6 mph12.2 kmh 29.38 in994.9 mb 0.00 in0.0 mm 0.00 in/hr0.0 mm/hr 0.00 in0.0 mm
01:27 AM 54.7°F12.6°C 54.4°F12.4°C 99% 5.2 mph NNE8.4 kmh NNE 6.9 mph11.1 kmh 29.38 in994.9 mb 0.00 in0.0 mm 0.00 in/hr0.0 mm/hr 0.00 in0.0 mm
01:26 AM 54.7°F12.6°C 54.4°F12.4°C 99% 5.1 mph NNE8.2 kmh NNE 6.0 mph9.7 kmh 29.38 in994.9 mb 0.00 in0.0 mm 0.00 in/hr0.0 mm/hr 0.00 in0.0 mm
01:25 AM 54.7°F12.6°C 54.4°F12.4°C 99% 5.0 mph N8.0 kmh N 6.0 mph9.7 kmh 29.38 in994.9 mb 0.00 in0.0 mm 0.00 in/hr0.0 mm/hr 0.00 in0.0 mm
01:24 AM 54.7°F12.6°C 54.4°F12.4°C 99% 5.1 mph N8.2 kmh N 6.0 mph9.7 kmh 29.38 in994.9 mb 0.00 in0.0 mm 0.00 in/hr0.0 mm/hr 0.00 in0.0 mm
01:23 AM 54.7°F12.6°C 54.4°F12.4°C 99% 5.2 mph N8.4 kmh N 6.0 mph9.7 kmh 29.38 in994.9 mb 0.00 in0.0 mm 0.00 in/hr0.0 mm/hr 0.00 in0.0 mm
01:22 AM 54.5°F12.5°C 54.2°F12.3°C 99% 5.1 mph N8.2 kmh N 6.0 mph9.7 kmh 29.38 in994.9 mb 0.00 in0.0 mm 0.00 in/hr0.0 mm/hr 0.00 in0.0 mm
01:21 AM 54.5°F12.5°C 54.2°F12.3°C 99% 5.0 mph N8.0 kmh N 6.0 mph9.7 kmh 29.37 in994.6 mb 0.00 in0.0 mm 0.00 in/hr0.0 mm/hr 0.00 in0.0 mm
01:20 AM 54.5°F12.5°C 54.2°F12.3°C 99% 5.1 mph N8.2 kmh N 6.0 mph9.7 kmh 29.38 in994.9 mb 0.00 in0.0 mm 0.00 in/hr0.0 mm/hr 0.00 in0.0 mm
01:19 AM 54.5°F12.5°C 54.2°F12.3°C 99% 5.1 mph N8.2 kmh N 6.0 mph9.7 kmh 29.38 in994.9 mb 0.00 in0.0 mm 0.00 in/hr0.0 mm/hr 0.00 in0.0 mm
01:18 AM 54.7°F12.6°C 54.4°F12.4°C 99% 5.2 mph N8.4 kmh N 6.0 mph9.7 kmh 29.37 in994.6 mb 0.00 in0.0 mm 0.00 in/hr0.0 mm/hr 0.00 in0.0 mm
01:17 AM 54.5°F12.5°C 54.2°F12.3°C 99% 4.8 mph N7.7 kmh N 6.0 mph9.7 kmh 29.37 in994.6 mb 0.00 in0.0 mm 0.00 in/hr0.0 mm/hr 0.00 in0.0 mm
01:16 AM 54.5°F12.5°C 54.2°F12.3°C 99% 4.6 mph N7.4 kmh N 6.0 mph9.7 kmh 29.37 in994.6 mb 0.00 in0.0 mm 0.00 in/hr0.0 mm/hr 0.00 in0.0 mm
01:15 AM 54.7°F12.6°C 54.4°F12.4°C 99% 4.4 mph N7.1 kmh N 6.0 mph9.7 kmh 29.37 in994.6 mb 0.00 in0.0 mm 0.00 in/hr0.0 mm/hr 0.00 in0.0 mm
01:14 AM 54.9°F12.7°C 54.6°F12.6°C 99% 4.4 mph N7.1 kmh N 6.0 mph9.7 kmh 29.37 in994.6 mb 0.00 in0.0 mm 0.00 in/hr0.0 mm/hr 0.00 in0.0 mm
01:13 AM 54.7°F12.6°C 54.4°F12.4°C 99% 4.5 mph N7.2 kmh N 6.9 mph11.1 kmh 29.37 in994.6 mb 0.00 in0.0 mm 0.00 in/hr0.0 mm/hr 0.00 in0.0 mm
01:12 AM 54.3°F12.4°C 54.1°F12.3°C 99% 4.5 mph N7.2 kmh N 6.9 mph11.1 kmh 29.37 in994.6 mb 0.00 in0.0 mm 0.00 in/hr0.0 mm/hr 0.00 in0.0 mm
01:11 AM 54.9°F12.7°C 54.6°F12.6°C 99% 4.6 mph N7.4 kmh N 6.9 mph11.1 kmh 29.37 in994.6 mb 0.00 in0.0 mm 0.00 in/hr0.0 mm/hr 0.00 in0.0 mm
01:10 AM 54.7°F12.6°C 54.4°F12.4°C 99% 4.6 mph NNE7.4 kmh NNE 6.9 mph11.1 kmh 29.37 in994.6 mb 0.00 in0.0 mm 0.00 in/hr0.0 mm/hr 0.00 in0.0 mm
01:09 AM 54.7°F12.6°C 54.4°F12.4°C 99% 4.7 mph N7.6 kmh N 6.9 mph11.1 kmh 29.37 in994.6 mb 0.00 in0.0 mm 0.00 in/hr0.0 mm/hr 0.00 in0.0 mm
01:08 AM 54.5°F12.5°C 54.2°F12.3°C 99% 5.0 mph N8.0 kmh N 8.3 mph13.4 kmh 29.37 in994.6 mb 0.00 in0.0 mm 0.00 in/hr0.0 mm/hr 0.00 in0.0 mm
01:07 AM 54.7°F12.6°C 54.4°F12.4°C 99% 5.2 mph N8.4 kmh N 8.3 mph13.4 kmh 29.37 in994.6 mb 0.00 in0.0 mm 0.00 in/hr0.0 mm/hr 0.00 in0.0 mm
01:06 AM 54.7°F12.6°C 54.4°F12.4°C 99% 5.2 mph N8.4 kmh N 8.3 mph13.4 kmh 29.37 in994.6 mb 0.00 in0.0 mm 0.00 in/hr0.0 mm/hr 0.00 in0.0 mm
01:05 AM 54.5°F12.5°C 54.2°F12.3°C 99% 5.0 mph N8.0 kmh N 8.3 mph13.4 kmh 29.37 in994.6 mb 0.00 in0.0 mm 0.00 in/hr0.0 mm/hr 0.00 in0.0 mm
01:04 AM 54.9°F12.7°C 54.6°F12.6°C 99% 5.1 mph N8.2 kmh N 8.3 mph13.4 kmh 29.37 in994.6 mb 0.00 in0.0 mm 0.00 in/hr0.0 mm/hr 0.00 in0.0 mm
01:03 AM 54.9°F12.7°C 54.6°F12.6°C 99% 4.9 mph N7.9 kmh N 8.3 mph13.4 kmh 29.37 in994.6 mb 0.00 in0.0 mm 0.00 in/hr0.0 mm/hr 0.00 in0.0 mm
01:02 AM 54.9°F12.7°C 54.6°F12.6°C 99% 5.0 mph N8.0 kmh N 8.3 mph13.4 kmh 29.37 in994.6 mb 0.00 in0.0 mm 0.00 in/hr0.0 mm/hr 0.00 in0.0 mm
01:01 AM 54.7°F12.6°C 54.4°F12.4°C 99% 5.1 mph N8.2 kmh N 8.3 mph13.4 kmh 29.37 in994.6 mb 0.00 in0.0 mm 0.00 in/hr0.0 mm/hr 0.00 in0.0 mm
01:00 AM 54.9°F12.7°C 54.6°F12.6°C 99% 4.9 mph N7.9 kmh N 8.3 mph13.4 kmh 29.37 in994.6 mb 0.00 in0.0 mm 0.00 in/hr0.0 mm/hr 0.00 in0.0 mm
12:59 AM 54.7°F12.6°C 54.4°F12.4°C 99% 4.7 mph N7.6 kmh N 8.3 mph13.4 kmh 29.37 in994.6 mb 0.00 in0.0 mm 0.00 in/hr0.0 mm/hr 0.00 in0.0 mm
12:58 AM 54.9°F12.7°C 54.6°F12.6°C 99% 4.2 mph N6.8 kmh N 6.9 mph11.1 kmh 29.37 in994.6 mb 0.00 in0.0 mm 0.00 in/hr0.0 mm/hr 0.00 in0.0 mm
12:57 AM 54.9°F12.7°C 54.6°F12.6°C 99% 4.3 mph N6.9 kmh N 6.9 mph11.1 kmh 29.37 in994.6 mb 0.00 in0.0 mm 0.00 in/hr0.0 mm/hr 0.00 in0.0 mm
12:56 AM 54.9°F12.7°C 54.6°F12.6°C 99% 4.6 mph N7.4 kmh N 6.9 mph11.1 kmh 29.37 in994.6 mb 0.00 in0.0 mm 0.00 in/hr0.0 mm/hr 0.00 in0.0 mm
12:55 AM 54.7°F12.6°C 54.4°F12.4°C 99% 4.9 mph N7.9 kmh N 6.9 mph11.1 kmh 29.37 in994.6 mb 0.00 in0.0 mm 0.00 in/hr0.0 mm/hr 0.00 in0.0 mm
12:54 AM 54.7°F12.6°C 54.4°F12.4°C 99% 4.8 mph N7.7 kmh N 6.9 mph11.1 kmh 29.37 in994.6 mb 0.00 in0.0 mm 0.00 in/hr0.0 mm/hr 0.00 in0.0 mm
12:53 AM 54.9°F12.7°C 54.6°F12.6°C 99% 4.7 mph N7.6 kmh N 6.9 mph11.1 kmh 29.37 in994.6 mb 0.00 in0.0 mm 0.00 in/hr0.0 mm/hr 0.00 in0.0 mm
12:52 AM 54.7°F12.6°C 54.4°F12.4°C 99% 5.0 mph NNE8.0 kmh NNE 6.9 mph11.1 kmh 29.37 in994.6 mb 0.00 in0.0 mm 0.00 in/hr0.0 mm/hr 0.00 in0.0 mm
12:51 AM 54.7°F12.6°C 54.4°F12.4°C 99% 4.8 mph NNE7.7 kmh NNE 6.9 mph11.1 kmh 29.37 in994.6 mb 0.00 in0.0 mm 0.00 in/hr0.0 mm/hr 0.00 in0.0 mm
12:50 AM 54.9°F12.7°C 54.6°F12.6°C 99% 5.1 mph NNE8.2 kmh NNE 8.3 mph13.4 kmh 29.37 in994.6 mb 0.00 in0.0 mm 0.00 in/hr0.0 mm/hr 0.00 in0.0 mm
12:49 AM 54.7°F12.6°C 54.4°F12.4°C 99% 5.2 mph NNE8.4 kmh NNE 8.3 mph13.4 kmh 29.37 in994.6 mb 0.00 in0.0 mm 0.00 in/hr0.0 mm/hr 0.00 in0.0 mm
12:48 AM 54.7°F12.6°C 54.4°F12.4°C 99% 5.6 mph NNE9.0 kmh NNE 8.3 mph13.4 kmh 29.37 in994.6 mb 0.00 in0.0 mm 0.00 in/hr0.0 mm/hr 0.00 in0.0 mm
12:47 AM 54.7°F12.6°C 54.4°F12.4°C 99% 5.8 mph NNE9.3 kmh NNE 8.3 mph13.4 kmh 29.37 in994.6 mb 0.00 in0.0 mm 0.00 in/hr0.0 mm/hr 0.00 in0.0 mm
12:46 AM 54.5°F12.5°C 54.2°F12.3°C 99% 5.7 mph NNE9.2 kmh NNE 8.3 mph13.4 kmh 29.37 in994.6 mb 0.00 in0.0 mm 0.00 in/hr0.0 mm/hr 0.00 in0.0 mm
12:45 AM 54.9°F12.7°C 54.6°F12.6°C 99% 5.6 mph NNE9.0 kmh NNE 8.3 mph13.4 kmh 29.37 in994.6 mb 0.00 in0.0 mm 0.00 in/hr0.0 mm/hr 0.00 in0.0 mm
12:44 AM 54.9°F12.7°C 54.6°F12.6°C 99% 5.7 mph NNE9.2 kmh NNE 8.3 mph13.4 kmh 29.37 in994.6 mb 0.00 in0.0 mm 0.00 in/hr0.0 mm/hr 0.00 in0.0 mm
12:43 AM 54.7°F12.6°C 54.4°F12.4°C 99% 5.9 mph NNE9.5 kmh NNE 8.3 mph13.4 kmh 29.37 in994.6 mb 0.00 in0.0 mm 0.00 in/hr0.0 mm/hr 0.00 in0.0 mm
12:42 AM 54.5°F12.5°C 54.2°F12.3°C 99% 5.6 mph N9.0 kmh N 8.3 mph13.4 kmh 29.37 in994.6 mb 0.00 in0.0 mm 0.00 in/hr0.0 mm/hr 0.00 in0.0 mm
12:41 AM 54.5°F12.5°C 54.2°F12.3°C 99% 5.6 mph N9.0 kmh N 8.3 mph13.4 kmh 29.37 in994.6 mb 0.00 in0.0 mm 0.00 in/hr0.0 mm/hr 0.00 in0.0 mm
12:40 AM 54.5°F12.5°C 54.2°F12.3°C 99% 5.3 mph N8.5 kmh N 8.3 mph13.4 kmh 29.37 in994.6 mb 0.00 in0.0 mm 0.00 in/hr0.0 mm/hr 0.00 in0.0 mm
12:39 AM 54.7°F12.6°C 54.4°F12.4°C 99% 5.1 mph N8.2 kmh N 7.6 mph12.2 kmh 29.36 in994.2 mb 0.00 in0.0 mm 0.00 in/hr0.0 mm/hr 0.00 in0.0 mm
12:38 AM 54.3°F12.4°C 54.1°F12.3°C 99% 5.0 mph N8.0 kmh N 7.6 mph12.2 kmh 29.36 in994.2 mb 0.00 in0.0 mm 0.00 in/hr0.0 mm/hr 0.00 in0.0 mm
12:37 AM 54.7°F12.6°C 54.4°F12.4°C 99% 4.7 mph N7.6 kmh N 7.6 mph12.2 kmh 29.36 in994.2 mb 0.00 in0.0 mm 0.00 in/hr0.0 mm/hr 0.00 in0.0 mm
12:36 AM 54.7°F12.6°C 54.4°F12.4°C 99% 4.6 mph N7.4 kmh N 7.6 mph12.2 kmh 29.36 in994.2 mb 0.00 in0.0 mm 0.00 in/hr0.0 mm/hr 0.00 in0.0 mm
12:35 AM 54.3°F12.4°C 54.1°F12.3°C 99% 4.5 mph N7.2 kmh N 7.6 mph12.2 kmh 29.37 in994.6 mb 0.00 in0.0 mm 0.00 in/hr0.0 mm/hr 0.00 in0.0 mm
12:34 AM 54.3°F12.4°C 54.1°F12.3°C 99% 4.4 mph N7.1 kmh N 7.6 mph12.2 kmh 29.36 in994.2 mb 0.00 in0.0 mm 0.00 in/hr0.0 mm/hr 0.00 in0.0 mm
12:33 AM 54.1°F12.3°C 53.9°F12.2°C 99% 4.2 mph N6.8 kmh N 6.0 mph9.7 kmh 29.36 in994.2 mb 0.00 in0.0 mm 0.00 in/hr0.0 mm/hr 0.00 in0.0 mm
12:32 AM 54.1°F12.3°C 53.9°F12.2°C 99% 4.0 mph N6.4 kmh N 6.0 mph9.7 kmh 29.36 in994.2 mb 0.00 in0.0 mm 0.00 in/hr0.0 mm/hr 0.00 in0.0 mm
12:31 AM 54.1°F12.3°C 53.9°F12.2°C 99% 3.8 mph N6.1 kmh N 6.0 mph9.7 kmh 29.36 in994.2 mb 0.00 in0.0 mm 0.00 in/hr0.0 mm/hr 0.00 in0.0 mm
12:30 AM 54.1°F12.3°C 53.9°F12.2°C 99% 3.6 mph N5.8 kmh N 6.0 mph9.7 kmh 29.36 in994.2 mb 0.00 in0.0 mm 0.00 in/hr0.0 mm/hr 0.00 in0.0 mm
12:29 AM 54.1°F12.3°C 53.9°F12.2°C 99% 3.5 mph N5.6 kmh N 6.0 mph9.7 kmh 29.36 in994.2 mb 0.00 in0.0 mm 0.00 in/hr0.0 mm/hr 0.00 in0.0 mm
12:28 AM 54.1°F12.3°C 53.9°F12.2°C 99% 3.3 mph N5.3 kmh N 6.0 mph9.7 kmh 29.36 in994.2 mb 0.00 in0.0 mm 0.00 in/hr0.0 mm/hr 0.00 in0.0 mm
12:27 AM 54.0°F12.2°C 53.7°F12.1°C 99% 3.3 mph N5.3 kmh N 4.5 mph7.2 kmh 29.36 in994.2 mb 0.00 in0.0 mm 0.00 in/hr0.0 mm/hr 0.00 in0.0 mm
12:26 AM 53.8°F12.1°C 53.5°F11.9°C 99% 3.4 mph N5.5 kmh N 4.5 mph7.2 kmh 29.36 in994.2 mb 0.00 in0.0 mm 0.00 in/hr0.0 mm/hr 0.00 in0.0 mm
12:25 AM 53.8°F12.1°C 53.5°F11.9°C 99% 3.4 mph N5.5 kmh N 4.5 mph7.2 kmh 29.36 in994.2 mb 0.00 in0.0 mm 0.00 in/hr0.0 mm/hr 0.00 in0.0 mm
12:24 AM 54.0°F12.2°C 53.7°F12.1°C 99% 3.3 mph N5.3 kmh N 4.5 mph7.2 kmh 29.36 in994.2 mb 0.00 in0.0 mm 0.00 in/hr0.0 mm/hr 0.00 in0.0 mm
12:23 AM 53.8°F12.1°C 53.5°F11.9°C 99% 3.0 mph N4.8 kmh N 4.5 mph7.2 kmh 29.36 in994.2 mb 0.00 in0.0 mm 0.00 in/hr0.0 mm/hr 0.00 in0.0 mm
12:22 AM 53.8°F12.1°C 53.5°F11.9°C 99% 2.9 mph N4.7 kmh N 4.5 mph7.2 kmh 29.37 in994.6 mb 0.00 in0.0 mm 0.00 in/hr0.0 mm/hr 0.00 in0.0 mm
12:21 AM 53.6°F12.0°C 53.3°F11.8°C 99% 2.8 mph N4.5 kmh N 4.5 mph7.2 kmh 29.36 in994.2 mb 0.00 in0.0 mm 0.00 in/hr0.0 mm/hr 0.00 in0.0 mm
12:20 AM 53.6°F12.0°C 53.3°F11.8°C 99% 2.8 mph N4.5 kmh N 4.5 mph7.2 kmh 29.37 in994.6 mb 0.00 in0.0 mm 0.00 in/hr0.0 mm/hr 0.00 in0.0 mm
12:19 AM 53.6°F12.0°C 53.3°F11.8°C 99% 2.6 mph N4.2 kmh N 4.5 mph7.2 kmh 29.36 in994.2 mb 0.00 in0.0 mm 0.00 in/hr0.0 mm/hr 0.00 in0.0 mm
12:18 AM 53.4°F11.9°C 53.2°F11.8°C 99% 2.5 mph N4.0 kmh N 4.5 mph7.2 kmh 29.37 in994.6 mb 0.00 in0.0 mm 0.00 in/hr0.0 mm/hr 0.00 in0.0 mm
12:17 AM 53.6°F12.0°C 53.3°F11.8°C 99% 2.5 mph N4.0 kmh N 4.5 mph7.2 kmh 29.36 in994.2 mb 0.00 in0.0 mm 0.00 in/hr0.0 mm/hr 0.00 in0.0 mm
12:16 AM 53.4°F11.9°C 53.2°F11.8°C 99% 2.4 mph N3.9 kmh N 4.5 mph7.2 kmh 29.36 in994.2 mb 0.00 in0.0 mm 0.00 in/hr0.0 mm/hr 0.00 in0.0 mm
12:15 AM 53.4°F11.9°C 53.2°F11.8°C 99% 2.6 mph N4.2 kmh N 5.4 mph8.7 kmh 29.36 in994.2 mb 0.00 in0.0 mm 0.00 in/hr0.0 mm/hr 0.00 in0.0 mm
12:14 AM 53.2°F11.8°C 53.0°F11.7°C 99% 2.5 mph N4.0 kmh N 5.4 mph8.7 kmh 29.36 in994.2 mb 0.00 in0.0 mm 0.00 in/hr0.0 mm/hr 0.00 in0.0 mm
12:13 AM 53.4°F11.9°C 53.2°F11.8°C 99% 2.7 mph N4.3 kmh N 5.4 mph8.7 kmh 29.37 in994.6 mb 0.00 in0.0 mm 0.00 in/hr0.0 mm/hr 0.00 in0.0 mm
12:12 AM 53.6°F12.0°C 53.3°F11.8°C 99% 2.7 mph N4.3 kmh N 5.4 mph8.7 kmh 29.37 in994.6 mb 0.00 in0.0 mm 0.00 in/hr0.0 mm/hr 0.00 in0.0 mm
12:11 AM 53.4°F11.9°C 53.2°F11.8°C 99% 2.6 mph N4.2 kmh N 5.4 mph8.7 kmh 29.37 in994.6 mb 0.00 in0.0 mm 0.00 in/hr0.0 mm/hr 0.00 in0.0 mm
12:10 AM 53.4°F11.9°C 53.2°F11.8°C 99% 2.4 mph N3.9 kmh N 5.4 mph8.7 kmh 29.37 in994.6 mb 0.00 in0.0 mm 0.00 in/hr0.0 mm/hr 0.00 in0.0 mm
12:09 AM 53.4°F11.9°C 53.2°F11.8°C 99% 2.2 mph N3.5 kmh N 5.4 mph8.7 kmh 29.37 in994.6 mb 0.00 in0.0 mm 0.00 in/hr0.0 mm/hr 0.00 in0.0 mm
12:08 AM 53.2°F11.8°C 53.0°F11.7°C 99% 1.9 mph N3.1 kmh N 5.4 mph8.7 kmh 29.36 in994.2 mb 0.00 in0.0 mm 0.00 in/hr0.0 mm/hr 0.00 in0.0 mm
12:07 AM 53.1°F11.7°C 52.8°F11.6°C 99% 1.5 mph NNE2.4 kmh NNE 5.4 mph8.7 kmh 29.37 in994.6 mb 0.00 in0.0 mm 0.00 in/hr0.0 mm/hr 0.00 in0.0 mm
12:06 AM 53.2°F11.8°C 53.0°F11.7°C 99% 1.3 mph N2.1 kmh N 5.4 mph8.7 kmh 29.37 in994.6 mb 0.00 in0.0 mm 0.00 in/hr0.0 mm/hr 0.00 in0.0 mm
12:05 AM 53.1°F11.7°C 52.8°F11.6°C 99% 1.1 mph N1.8 kmh N 5.4 mph8.7 kmh 29.37 in994.6 mb 0.00 in0.0 mm 0.00 in/hr0.0 mm/hr 0.00 in0.0 mm
12:04 AM 52.9°F11.6°C 52.6°F11.4°C 99% 0.7 mph N1.1 kmh N 3.1 mph5.0 kmh 29.37 in994.6 mb 0.00 in0.0 mm 0.00 in/hr0.0 mm/hr 0.00 in0.0 mm
12:03 AM 52.9°F11.6°C 52.6°F11.4°C 99% 0.6 mph N1.0 kmh N 3.1 mph5.0 kmh 29.37 in994.6 mb 0.00 in0.0 mm 0.00 in/hr0.0 mm/hr 0.00 in0.0 mm
12:02 AM 53.1°F11.7°C 52.8°F11.6°C 99% 0.8 mph NNE1.3 kmh NNE 3.1 mph5.0 kmh 29.37 in994.6 mb 0.00 in0.0 mm 0.00 in/hr0.0 mm/hr 0.00 in0.0 mm
12:01 AM 52.9°F11.6°C 52.6°F11.4°C 99% 1.0 mph NNE1.6 kmh NNE 3.1 mph5.0 kmh 29.37 in994.6 mb 0.00 in0.0 mm 0.00 in/hr0.0 mm/hr 0.00 in0.0 mm
12:00 AM 52.9°F11.6°C 52.6°F11.4°C 99% 1.2 mph NE1.9 kmh NE 3.1 mph5.0 kmh 29.36 in994.2 mb 0.00 in0.0 mm 0.00 in/hr0.0 mm/hr 0.00 in0.0 mm